sensor_id;sensor_type;location;lat;lon;timestamp;P1;durP1;ratioP1;P2;durP2;ratioP2
26838;SDS011;40088;51.214;6.786;2023-05-19T00:01:52;6.05;;;2.97;;
26838;SDS011;40088;51.214;6.786;2023-05-19T00:11:54;10.38;;;3.35;;
26838;SDS011;40088;51.214;6.786;2023-05-19T00:21:55;7.93;;;2.90;;
26838;SDS011;40088;51.214;6.786;2023-05-19T00:31:55;6.53;;;3.05;;
26838;SDS011;40088;51.214;6.786;2023-05-19T00:41:56;7.22;;;3.28;;
26838;SDS011;40088;51.214;6.786;2023-05-19T00:51:56;6.72;;;3.20;;
26838;SDS011;40088;51.214;6.786;2023-05-19T01:01:57;7.97;;;3.70;;
26838;SDS011;40088;51.214;6.786;2023-05-19T01:11:58;5.35;;;3.22;;
26838;SDS011;40088;51.214;6.786;2023-05-19T01:22:11;5.65;;;3.13;;
26838;SDS011;40088;51.214;6.786;2023-05-19T01:32:21;5.63;;;3.38;;
26838;SDS011;40088;51.214;6.786;2023-05-19T01:42:22;7.85;;;3.40;;
26838;SDS011;40088;51.214;6.786;2023-05-19T01:52:24;6.93;;;2.83;;
26838;SDS011;40088;51.214;6.786;2023-05-19T02:12:41;6.82;;;3.00;;
26838;SDS011;40088;51.214;6.786;2023-05-19T02:22:44;5.45;;;2.58;;
26838;SDS011;40088;51.214;6.786;2023-05-19T02:32:44;5.23;;;2.97;;
26838;SDS011;40088;51.214;6.786;2023-05-19T02:42:45;5.97;;;2.85;;
26838;SDS011;40088;51.214;6.786;2023-05-19T02:52:46;4.72;;;2.72;;
26838;SDS011;40088;51.214;6.786;2023-05-19T03:02:46;6.78;;;2.67;;
26838;SDS011;40088;51.214;6.786;2023-05-19T03:12:46;5.00;;;2.78;;
26838;SDS011;40088;51.214;6.786;2023-05-19T03:22:46;5.38;;;2.72;;
26838;SDS011;40088;51.214;6.786;2023-05-19T03:32:47;7.03;;;2.92;;
26838;SDS011;40088;51.214;6.786;2023-05-19T03:42:47;9.98;;;3.10;;
26838;SDS011;40088;51.214;6.786;2023-05-19T03:52:48;5.55;;;2.70;;
26838;SDS011;40088;51.214;6.786;2023-05-19T04:02:48;5.40;;;2.60;;
26838;SDS011;40088;51.214;6.786;2023-05-19T04:12:49;4.95;;;3.05;;
26838;SDS011;40088;51.214;6.786;2023-05-19T04:22:49;5.28;;;2.65;;
26838;SDS011;40088;51.214;6.786;2023-05-19T04:32:49;5.65;;;2.88;;
26838;SDS011;40088;51.214;6.786;2023-05-19T04:42:50;5.47;;;2.97;;
26838;SDS011;40088;51.214;6.786;2023-05-19T04:52:51;6.07;;;3.10;;
26838;SDS011;40088;51.214;6.786;2023-05-19T05:02:51;5.40;;;2.90;;
26838;SDS011;40088;51.214;6.786;2023-05-19T05:12:51;5.75;;;2.78;;
26838;SDS011;40088;51.214;6.786;2023-05-19T05:22:52;7.05;;;3.05;;
26838;SDS011;40088;51.214;6.786;2023-05-19T05:32:52;4.40;;;2.80;;
26838;SDS011;40088;51.214;6.786;2023-05-19T05:42:53;7.15;;;3.13;;
26838;SDS011;40088;51.214;6.786;2023-05-19T05:52:57;6.10;;;2.42;;
26838;SDS011;40088;51.214;6.786;2023-05-19T06:03:00;6.77;;;2.90;;
26838;SDS011;40088;51.214;6.786;2023-05-19T06:13:01;7.78;;;2.50;;
26838;SDS011;40088;51.214;6.786;2023-05-19T06:23:02;4.88;;;2.92;;
26838;SDS011;40088;51.214;6.786;2023-05-19T06:33:02;3.58;;;2.40;;
26838;SDS011;40088;51.214;6.786;2023-05-19T06:43:02;4.70;;;2.80;;
26838;SDS011;40088;51.214;6.786;2023-05-19T06:53:03;6.07;;;2.50;;
26838;SDS011;40088;51.214;6.786;2023-05-19T07:03:05;7.38;;;3.05;;
26838;SDS011;40088;51.214;6.786;2023-05-19T07:13:05;5.45;;;2.70;;
26838;SDS011;40088;51.214;6.786;2023-05-19T07:23:05;4.82;;;2.55;;
26838;SDS011;40088;51.214;6.786;2023-05-19T07:33:06;5.88;;;2.60;;
26838;SDS011;40088;51.214;6.786;2023-05-19T07:43:07;3.15;;;2.40;;
26838;SDS011;40088;51.214;6.786;2023-05-19T07:53:07;4.15;;;2.33;;
26838;SDS011;40088;51.214;6.786;2023-05-19T08:03:08;5.38;;;2.38;;
26838;SDS011;40088;51.214;6.786;2023-05-19T08:13:08;3.80;;;2.33;;
26838;SDS011;40088;51.214;6.786;2023-05-19T08:23:08;3.83;;;2.00;;
26838;SDS011;40088;51.214;6.786;2023-05-19T08:33:09;4.63;;;2.03;;
26838;SDS011;40088;51.214;6.786;2023-05-19T08:43:09;4.90;;;2.53;;
26838;SDS011;40088;51.214;6.786;2023-05-19T08:53:16;4.57;;;3.08;;
26838;SDS011;40088;51.214;6.786;2023-05-19T09:03:21;4.78;;;3.05;;
26838;SDS011;40088;51.214;6.786;2023-05-19T09:13:22;5.28;;;3.13;;
26838;SDS011;40088;51.214;6.786;2023-05-19T09:23:22;5.57;;;3.50;;
26838;SDS011;40088;51.214;6.786;2023-05-19T09:33:23;8.43;;;4.20;;
26838;SDS011;40088;51.214;6.786;2023-05-19T09:43:27;8.60;;;3.88;;
26838;SDS011;40088;51.214;6.786;2023-05-19T09:53:28;6.65;;;3.50;;
26838;SDS011;40088;51.214;6.786;2023-05-19T10:03:31;7.37;;;3.77;;
26838;SDS011;40088;51.214;6.786;2023-05-19T10:13:33;8.18;;;3.78;;
26838;SDS011;40088;51.214;6.786;2023-05-19T10:23:35;5.80;;;3.30;;
26838;SDS011;40088;51.214;6.786;2023-05-19T10:54:11;5.15;;;2.72;;
26838;SDS011;40088;51.214;6.786;2023-05-19T11:04:14;6.68;;;3.20;;
26838;SDS011;40088;51.214;6.786;2023-05-19T11:14:22;3.83;;;2.50;;
26838;SDS011;40088;51.214;6.786;2023-05-19T11:24:32;4.85;;;2.22;;
26838;SDS011;40088;51.214;6.786;2023-05-19T11:34:34;4.93;;;2.63;;
26838;SDS011;40088;51.214;6.786;2023-05-19T11:44:36;4.65;;;2.47;;
26838;SDS011;40088;51.214;6.786;2023-05-19T11:54:37;3.25;;;1.85;;
26838;SDS011;40088;51.214;6.786;2023-05-19T12:04:38;7.18;;;2.90;;
26838;SDS011;40088;51.214;6.786;2023-05-19T12:14:39;4.93;;;2.55;;
26838;SDS011;40088;51.214;6.786;2023-05-19T12:24:41;6.35;;;3.15;;
26838;SDS011;40088;51.214;6.786;2023-05-19T12:34:41;4.10;;;2.55;;
26838;SDS011;40088;51.214;6.786;2023-05-19T12:44:45;4.68;;;2.40;;
26838;SDS011;40088;51.214;6.786;2023-05-19T12:54:47;8.25;;;3.38;;
26838;SDS011;40088;51.214;6.786;2023-05-19T13:04:48;4.68;;;2.78;;
26838;SDS011;40088;51.214;6.786;2023-05-19T13:14:48;3.95;;;2.47;;
26838;SDS011;40088;51.214;6.786;2023-05-19T13:24:49;4.95;;;2.40;;
26838;SDS011;40088;51.214;6.786;2023-05-19T13:34:49;5.35;;;2.85;;
26838;SDS011;40088;51.214;6.786;2023-05-19T13:44:53;3.33;;;2.15;;
26838;SDS011;40088;51.214;6.786;2023-05-19T13:54:55;4.65;;;2.35;;
26838;SDS011;40088;51.214;6.786;2023-05-19T14:04:55;4.57;;;2.50;;
26838;SDS011;40088;51.214;6.786;2023-05-19T14:14:56;5.18;;;2.65;;
26838;SDS011;40088;51.214;6.786;2023-05-19T14:24:56;6.10;;;2.80;;
26838;SDS011;40088;51.214;6.786;2023-05-19T14:34:57;6.05;;;2.63;;
26838;SDS011;40088;51.214;6.786;2023-05-19T14:44:58;5.38;;;2.80;;
26838;SDS011;40088;51.214;6.786;2023-05-19T14:54:58;4.38;;;2.13;;
26838;SDS011;40088;51.214;6.786;2023-05-19T15:04:59;4.60;;;2.70;;
26838;SDS011;40088;51.214;6.786;2023-05-19T15:14:59;4.15;;;2.70;;
26838;SDS011;40088;51.214;6.786;2023-05-19T15:25:00;4.00;;;2.15;;
26838;SDS011;40088;51.214;6.786;2023-05-19T15:35:00;3.17;;;2.20;;
26838;SDS011;40088;51.214;6.786;2023-05-19T15:45:00;5.20;;;2.70;;
26838;SDS011;40088;51.214;6.786;2023-05-19T15:55:00;4.90;;;2.53;;
26838;SDS011;40088;51.214;6.786;2023-05-19T16:05:01;4.72;;;2.47;;
26838;SDS011;40088;51.214;6.786;2023-05-19T16:15:01;4.45;;;2.47;;
26838;SDS011;40088;51.214;6.786;2023-05-19T16:25:02;2.70;;;2.35;;
26838;SDS011;40088;51.214;6.786;2023-05-19T16:35:02;3.67;;;2.63;;
26838;SDS011;40088;51.214;6.786;2023-05-19T16:45:03;3.95;;;2.60;;
26838;SDS011;40088;51.214;6.786;2023-05-19T16:55:04;3.97;;;2.50;;
26838;SDS011;40088;51.214;6.786;2023-05-19T17:05:05;5.35;;;3.10;;
26838;SDS011;40088;51.214;6.786;2023-05-19T17:15:06;4.63;;;2.67;;
26838;SDS011;40088;51.214;6.786;2023-05-19T17:25:06;5.55;;;2.88;;
26838;SDS011;40088;51.214;6.786;2023-05-19T17:35:07;3.53;;;2.38;;
26838;SDS011;40088;51.214;6.786;2023-05-19T17:45:08;6.35;;;3.35;;
26838;SDS011;40088;51.214;6.786;2023-05-19T17:55:11;3.73;;;2.67;;
26838;SDS011;40088;51.214;6.786;2023-05-19T18:05:11;4.70;;;3.05;;
26838;SDS011;40088;51.214;6.786;2023-05-19T18:15:12;5.05;;;3.30;;
26838;SDS011;40088;51.214;6.786;2023-05-19T18:25:13;4.20;;;2.80;;
26838;SDS011;40088;51.214;6.786;2023-05-19T18:35:13;4.75;;;3.17;;
26838;SDS011;40088;51.214;6.786;2023-05-19T18:45:13;4.15;;;2.70;;
26838;SDS011;40088;51.214;6.786;2023-05-19T18:55:13;4.72;;;2.90;;
26838;SDS011;40088;51.214;6.786;2023-05-19T19:05:14;4.15;;;2.65;;
26838;SDS011;40088;51.214;6.786;2023-05-19T19:15:14;2.95;;;2.40;;
26838;SDS011;40088;51.214;6.786;2023-05-19T19:25:14;3.45;;;2.90;;
26838;SDS011;40088;51.214;6.786;2023-05-19T19:35:15;3.23;;;2.87;;
26838;SDS011;40088;51.214;6.786;2023-05-19T19:45:16;3.75;;;2.72;;
26838;SDS011;40088;51.214;6.786;2023-05-19T19:55:17;6.03;;;3.28;;
26838;SDS011;40088;51.214;6.786;2023-05-19T20:05:17;3.67;;;2.58;;
26838;SDS011;40088;51.214;6.786;2023-05-19T20:15:17;3.30;;;2.95;;
26838;SDS011;40088;51.214;6.786;2023-05-19T20:25:18;4.22;;;2.80;;
26838;SDS011;40088;51.214;6.786;2023-05-19T20:35:18;5.22;;;3.38;;
26838;SDS011;40088;51.214;6.786;2023-05-19T20:45:18;5.45;;;2.83;;
26838;SDS011;40088;51.214;6.786;2023-05-19T20:55:19;3.80;;;3.00;;
26838;SDS011;40088;51.214;6.786;2023-05-19T21:05:19;4.38;;;3.05;;
26838;SDS011;40088;51.214;6.786;2023-05-19T21:15:19;4.10;;;3.13;;
26838;SDS011;40088;51.214;6.786;2023-05-19T21:25:20;4.47;;;3.05;;
26838;SDS011;40088;51.214;6.786;2023-05-19T21:35:20;4.80;;;3.63;;
26838;SDS011;40088;51.214;6.786;2023-05-19T21:45:20;6.22;;;3.63;;
26838;SDS011;40088;51.214;6.786;2023-05-19T21:55:21;5.20;;;3.83;;
26838;SDS011;40088;51.214;6.786;2023-05-19T22:05:22;4.68;;;3.75;;
26838;SDS011;40088;51.214;6.786;2023-05-19T22:15:22;5.45;;;3.53;;
26838;SDS011;40088;51.214;6.786;2023-05-19T22:25:22;4.45;;;3.65;;
26838;SDS011;40088;51.214;6.786;2023-05-19T22:35:22;5.05;;;3.60;;
26838;SDS011;40088;51.214;6.786;2023-05-19T22:45:23;4.85;;;3.70;;
26838;SDS011;40088;51.214;6.786;2023-05-19T22:55:23;5.03;;;3.63;;
26838;SDS011;40088;51.214;6.786;2023-05-19T23:05:23;4.18;;;3.25;;
26838;SDS011;40088;51.214;6.786;2023-05-19T23:15:24;4.28;;;3.42;;
26838;SDS011;40088;51.214;6.786;2023-05-19T23:25:24;4.20;;;3.22;;
26838;SDS011;40088;51.214;6.786;2023-05-19T23:35:24;4.70;;;3.60;;
26838;SDS011;40088;51.214;6.786;2023-05-19T23:45:25;4.03;;;2.97;;
26838;SDS011;40088;51.214;6.786;2023-05-19T23:55:25;5.80;;;3.55;;
